Accueil
METAR-TAF:

METAR-TAF

Aéroports :

Genève, Suisse

Aéroport international de Genève

latitude: 46-15N, longitude: 006-08E, altitude: 420 m

Observation

Le bulletin a été fait il y a 14 minutes, à 00:20 UTC
Vent 10 kt de nord/nord-est
Température -1°C
Humidité 74%
Pression 1010 hPa
Visibilité: 7000 m
Nuages fragmentés à une hauteur de 2000 ft

METAR: LSGG 240020Z AUTO 02010KT 7000 BKN020 M01/M05 Q1010 NOSIG

Heure: 01:34 (00:34 UTC)

Prévision

Le bulletin a été fait il y a 1 heure et 9 minutes, à 23:25 UTC
Prévision valable du 24 à 00 UTC au 25 à 06 UTC
Vent 15 kt de nord/nord-est
Visibilité: 7000 m
Ciel couvert à une hauteur de 2000 ft

TAF: LSGG 232325Z 2400/2506 03015KT 7000 OVC020 TX02/2415Z TNM01/2406Z TNM02/2505Z

Observations et prévisions météorologiques de plus de 4000 aéroports (messages METAR et TAF).

Les stations disponibles sont représentées par des disques jaunes et rouges sur la carte.

Passer la souris dessus pour voir le nom de la station.

Cliquer dessus pour voir les observations et prévisions météorologiques.

Pour changer de carte: cliquez sur les boutons verts avec une croix noire pour zoomer, sur le bouton vert avec un tiret pour effectuer un zoom arrière, ou sur les flèches vertes pour les cartes adjacentes.


METAR-TAF: